Time;durP1;ratioP1;P1;durP2;ratioP2;P2;SDS_P1;SDS_P2;PMS_P1;PMS_P2;Temp;Humidity;BMP_temperature;BMP_pressure;BME280_temperature;BME280_humidity;BME280_pressure;Samples;Min_cycle;Max_cycle;Signal;HPM_P1;HPM_P2
2021/05/30 00:00:25;;;;;;;4.03;1.30;;;;;;;;;;5032723;28;20045;-83
2021/05/30 00:02:51;;;;;;;2.17;1.30;;;;;;;;;;5033422;28;20087;-82
2021/05/30 00:05:17;;;;;;;3.22;1.58;;;;;;;;;;5031351;28;20108;-82
2021/05/30 00:07:43;;;;;;;2.13;1.30;;;;;;;;;;5039533;28;20040;-83
2021/05/30 00:10:09;;;;;;;2.97;1.55;;;;;;;;;;5030336;28;20074;-80
2021/05/30 00:12:36;;;;;;;3.22;1.58;;;;;;;;;;5031266;28;20029;-83
2021/05/30 00:15:02;;;;;;;3.90;1.38;;;;;;;;;;5039350;28;20496;-82
2021/05/30 00:17:28;;;;;;;1.77;1.30;;;;;;;;;;5039246;28;20041;-81
2021/05/30 00:19:54;;;;;;;2.30;1.30;;;;;;;;;;5035175;28;20559;-82
2021/05/30 00:22:20;;;;;;;3.47;1.50;;;;;;;;;;5030657;28;20091;-81
2021/05/30 00:24:46;;;;;;;3.38;1.40;;;;;;;;;;5034827;28;20036;-81
2021/05/30 00:27:12;;;;;;;2.30;1.30;;;;;;;;;;5031042;28;20168;-82
2021/05/30 00:29:38;;;;;;;3.13;1.65;;;;;;;;;;5029239;28;20100;-81
2021/05/30 00:32:04;;;;;;;3.35;2.15;;;;;;;;;;5039175;28;20080;-82
2021/05/30 00:34:30;;;;;;;3.50;1.80;;;;;;;;;;5033340;28;20037;-81
2021/05/30 00:36:56;;;;;;;5.47;2.10;;;;;;;;;;5036406;28;20029;-81
2021/05/30 00:39:22;;;;;;;3.70;1.83;;;;;;;;;;5040011;28;20029;-81
2021/05/30 00:41:48;;;;;;;3.33;2.00;;;;;;;;;;5034459;28;20113;-81
2021/05/30 00:44:22;;;;;;;3.63;1.67;;;;;;;;;;5035982;28;20029;-81
2021/05/30 00:46:48;;;;;;;2.95;1.50;;;;;;;;;;5047415;28;20035;-82
2021/05/30 00:49:14;;;;;;;4.72;1.20;;;;;;;;;;5046930;28;20478;-82
2021/05/30 00:51:40;;;;;;;3.25;1.70;;;;;;;;;;5031756;28;20032;-81
2021/05/30 00:54:07;;;;;;;4.28;1.90;;;;;;;;;;5040665;28;20108;-82
2021/05/30 00:56:33;;;;;;;3.08;1.70;;;;;;;;;;5037627;28;20385;-81
2021/05/30 00:58:59;;;;;;;2.38;1.70;;;;;;;;;;5032172;28;20029;-82
2021/05/30 01:01:25;;;;;;;2.88;1.60;;;;;;;;;;5032055;28;20034;-82
2021/05/30 01:03:51;;;;;;;2.00;1.70;;;;;;;;;;5033296;28;20037;-82
2021/05/30 01:06:17;;;;;;;3.22;1.83;;;;;;;;;;5033062;28;20028;-82
2021/05/30 01:08:43;;;;;;;2.78;1.63;;;;;;;;;;5030362;28;20026;-82
2021/05/30 01:11:19;;;;;;;3.33;1.48;;;;;;;;;;5035543;28;20036;-81
2021/05/30 01:13:45;;;;;;;3.35;1.52;;;;;;;;;;5033163;28;20074;-82
2021/05/30 01:16:15;;;;;;;2.40;1.50;;;;;;;;;;5031408;28;20034;-82
2021/05/30 01:18:42;;;;;;;3.17;1.50;;;;;;;;;;5030515;28;20036;-81
2021/05/30 01:21:08;;;;;;;3.88;1.60;;;;;;;;;;5032309;28;20049;-81
2021/05/30 01:23:34;;;;;;;4.18;1.80;;;;;;;;;;5038987;28;20067;-80
2021/05/30 01:26:00;;;;;;;4.25;1.80;;;;;;;;;;5037183;28;20014;-79
2021/05/30 01:28:26;;;;;;;4.30;1.80;;;;;;;;;;5033390;28;20429;-81
2021/05/30 01:30:52;;;;;;;2.65;1.90;;;;;;;;;;5031150;28;20026;-81
2021/05/30 01:33:18;;;;;;;3.42;1.60;;;;;;;;;;5029350;28;20049;-81
2021/05/30 01:35:45;;;;;;;3.80;1.92;;;;;;;;;;5029163;28;20026;-81
2021/05/30 01:38:11;;;;;;;2.65;1.67;;;;;;;;;;5037206;28;20029;-80
2021/05/30 01:40:37;;;;;;;4.55;1.73;;;;;;;;;;5036452;28;20057;-81
2021/05/30 01:43:03;;;;;;;2.75;1.90;;;;;;;;;;5032038;28;20056;-81
2021/05/30 01:45:31;;;;;;;3.75;1.48;;;;;;;;;;5036992;28;20025;-80
2021/05/30 01:47:57;;;;;;;4.20;1.67;;;;;;;;;;5041503;28;20052;-80
2021/05/30 01:50:24;;;;;;;3.63;1.90;;;;;;;;;;5033471;28;20699;-83
2021/05/30 01:52:51;;;;;;;3.53;1.90;;;;;;;;;;5035598;28;20018;-80
2021/05/30 01:55:23;;;;;;;3.50;2.08;;;;;;;;;;5038669;28;20037;-82
2021/05/30 01:57:50;;;;;;;3.97;1.95;;;;;;;;;;5032153;28;20017;-82
2021/05/30 02:00:16;;;;;;;5.93;2.35;;;;;;;;;;5035000;28;20034;-82
2021/05/30 02:02:53;;;;;;;3.78;1.80;;;;;;;;;;5042421;28;20030;-81
2021/05/30 02:05:20;;;;;;;3.60;1.70;;;;;;;;;;5036035;28;20466;-81
2021/05/30 02:07:47;;;;;;;4.28;2.00;;;;;;;;;;5035766;28;20025;-81
2021/05/30 02:10:13;;;;;;;3.27;1.90;;;;;;;;;;5036977;28;20060;-80
2021/05/30 02:12:39;;;;;;;6.63;2.40;;;;;;;;;;5038355;28;20290;-81
2021/05/30 02:15:06;;;;;;;5.80;2.30;;;;;;;;;;5032347;28;20022;-81
2021/05/30 02:17:34;;;;;;;3.55;2.22;;;;;;;;;;5032506;28;20525;-81
2021/05/30 02:19:59;;;;;;;2.65;1.83;;;;;;;;;;5037015;28;20184;-81
2021/05/30 02:22:25;;;;;;;3.88;2.42;;;;;;;;;;5029281;28;20120;-81
2021/05/30 02:24:51;;;;;;;4.78;1.92;;;;;;;;;;5041255;28;20029;-81
2021/05/30 02:27:18;;;;;;;3.20;2.00;;;;;;;;;;5033798;28;20072;-81
2021/05/30 02:29:44;;;;;;;3.53;2.30;;;;;;;;;;5030812;28;20026;-81
2021/05/30 02:32:12;;;;;;;3.85;2.40;;;;;;;;;;5033957;28;20052;-82
2021/05/30 02:34:41;;;;;;;5.10;2.80;;;;;;;;;;5036844;28;20410;-81
2021/05/30 02:37:07;;;;;;;7.60;2.50;;;;;;;;;;5038968;28;20117;-80
2021/05/30 02:39:33;;;;;;;3.83;2.33;;;;;;;;;;5034778;28;20060;-81
2021/05/30 02:41:59;;;;;;;3.97;2.40;;;;;;;;;;5034251;28;20112;-81
2021/05/30 02:44:25;;;;;;;4.13;2.30;;;;;;;;;;5032055;28;20053;-81
2021/05/30 02:46:51;;;;;;;5.45;2.10;;;;;;;;;;5035694;28;20030;-81
2021/05/30 02:49:18;;;;;;;6.50;2.47;;;;;;;;;;5032703;28;20136;-81
2021/05/30 02:51:44;;;;;;;4.38;2.33;;;;;;;;;;5033446;28;20032;-81
2021/05/30 02:54:10;;;;;;;4.07;2.13;;;;;;;;;;5031473;28;20038;-81
2021/05/30 02:56:36;;;;;;;2.90;2.30;;;;;;;;;;5033223;28;20049;-81
2021/05/30 02:59:01;;;;;;;3.72;2.33;;;;;;;;;;5034464;28;20466;-81
2021/05/30 03:01:28;;;;;;;3.25;2.10;;;;;;;;;;5034194;28;20065;-81
2021/05/30 03:03:54;;;;;;;5.45;2.08;;;;;;;;;;5035429;28;20056;-80
2021/05/30 03:06:24;;;;;;;4.20;2.20;;;;;;;;;;5036789;28;20454;-81
2021/05/30 03:08:50;;;;;;;2.97;2.00;;;;;;;;;;5032184;28;20030;-82
2021/05/30 03:11:16;;;;;;;4.10;2.17;;;;;;;;;;5028266;28;20084;-81
2021/05/30 03:13:42;;;;;;;4.07;1.98;;;;;;;;;;5025956;28;20014;-81
2021/05/30 03:16:08;;;;;;;3.45;1.70;;;;;;;;;;5024706;28;20500;-81
2021/05/30 03:18:34;;;;;;;4.47;1.80;;;;;;;;;;5030837;28;20032;-81
2021/05/30 03:21:00;;;;;;;2.15;1.70;;;;;;;;;;5030843;28;20061;-81
2021/05/30 03:23:26;;;;;;;3.15;2.30;;;;;;;;;;5023093;28;20025;-81
2021/05/30 03:25:52;;;;;;;3.83;2.42;;;;;;;;;;5029553;28;20025;-81
2021/05/30 03:28:18;;;;;;;3.53;2.20;;;;;;;;;;5027585;28;20041;-80
2021/05/30 03:30:44;;;;;;;4.22;2.13;;;;;;;;;;5035051;28;20367;-81
2021/05/30 03:33:10;;;;;;;3.58;2.20;;;;;;;;;;5024996;28;20112;-81
2021/05/30 03:35:36;;;;;;;5.45;2.10;;;;;;;;;;5025573;28;20044;-81
2021/05/30 03:38:05;;;;;;;3.47;2.00;;;;;;;;;;5035165;28;20026;-81
2021/05/30 03:40:37;;;;;;;4.22;2.10;;;;;;;;;;5023828;28;20018;-80
2021/05/30 03:43:03;;;;;;;3.25;2.00;;;;;;;;;;5024914;28;20044;-81
2021/05/30 03:45:30;;;;;;;3.17;1.85;;;;;;;;;;5033986;28;20026;-82
2021/05/30 03:47:56;;;;;;;2.83;1.80;;;;;;;;;;5024129;28;20026;-81
2021/05/30 03:50:22;;;;;;;2.92;1.83;;;;;;;;;;5024963;28;20041;-81
2021/05/30 03:52:48;;;;;;;3.28;1.90;;;;;;;;;;5021419;28;20022;-81
2021/05/30 03:55:15;;;;;;;3.40;2.03;;;;;;;;;;5024766;28;20440;-82
2021/05/30 03:57:41;;;;;;;3.20;1.80;;;;;;;;;;5031001;28;20029;-81
2021/05/30 04:00:12;;;;;;;3.28;1.90;;;;;;;;;;5031028;28;20029;-81
2021/05/30 04:02:38;;;;;;;5.95;2.00;;;;;;;;;;5031755;28;20116;-81
2021/05/30 04:05:05;;;;;;;4.60;1.80;;;;;;;;;;5032901;28;20025;-81
2021/05/30 04:07:36;;;;;;;3.03;1.85;;;;;;;;;;5031728;28;20021;-81
2021/05/30 04:10:06;;;;;;;3.45;2.28;;;;;;;;;;5034610;28;20037;-81
2021/05/30 04:12:32;;;;;;;2.80;1.83;;;;;;;;;;5023401;28;20410;-81
2021/05/30 04:14:59;;;;;;;3.47;1.80;;;;;;;;;;5030523;28;20109;-81
2021/05/30 04:17:25;;;;;;;3.20;2.05;;;;;;;;;;5036196;28;20045;-81
2021/05/30 04:19:51;;;;;;;3.35;1.80;;;;;;;;;;5033833;28;20036;-81
2021/05/30 04:22:17;;;;;;;3.60;2.00;;;;;;;;;;5032706;28;20048;-80
2021/05/30 04:24:43;;;;;;;4.47;1.70;;;;;;;;;;5042423;28;20021;-81
2021/05/30 04:27:09;;;;;;;5.15;2.00;;;;;;;;;;5028083;28;20061;-81
2021/05/30 04:29:35;;;;;;;6.40;1.70;;;;;;;;;;5029026;28;20042;-81
2021/05/30 04:32:02;;;;;;;3.10;1.95;;;;;;;;;;5032985;28;20533;-81
2021/05/30 04:34:29;;;;;;;3.40;1.95;;;;;;;;;;5030744;28;20048;-81
2021/05/30 04:36:55;;;;;;;2.72;1.83;;;;;;;;;;5038014;28;20116;-81
2021/05/30 04:39:21;;;;;;;2.95;1.70;;;;;;;;;;5031716;28;20498;-81
2021/05/30 04:41:47;;;;;;;3.95;1.95;;;;;;;;;;5030791;28;20037;-81
2021/05/30 04:44:13;;;;;;;2.97;2.03;;;;;;;;;;5029933;28;20364;-82
2021/05/30 04:46:39;;;;;;;3.28;1.90;;;;;;;;;;5028486;28;20467;-81
2021/05/30 04:49:05;;;;;;;4.30;1.90;;;;;;;;;;5032517;28;20022;-81
2021/05/30 04:51:31;;;;;;;3.28;1.85;;;;;;;;;;5030664;28;20013;-81
2021/05/30 04:53:59;;;;;;;4.03;1.88;;;;;;;;;;5028087;28;20036;-82
2021/05/30 04:56:25;;;;;;;4.00;2.00;;;;;;;;;;5036430;28;20049;-81
2021/05/30 04:58:51;;;;;;;2.92;1.85;;;;;;;;;;5035724;28;20061;-81
2021/05/30 05:01:17;;;;;;;3.00;1.77;;;;;;;;;;5032063;28;20033;-81
2021/05/30 05:03:43;;;;;;;2.55;1.90;;;;;;;;;;5028916;28;20090;-82
2021/05/30 05:06:10;;;;;;;3.47;1.70;;;;;;;;;;5034423;28;20041;-82
2021/05/30 05:08:36;;;;;;;3.53;1.70;;;;;;;;;;5029149;28;20036;-82
2021/05/30 05:11:02;;;;;;;3.33;1.88;;;;;;;;;;5032720;28;20474;-81
2021/05/30 05:13:28;;;;;;;2.53;1.50;;;;;;;;;;5031719;28;20037;-82
2021/05/30 05:15:55;;;;;;;3.55;1.90;;;;;;;;;;5019155;28;20132;-81
2021/05/30 05:18:22;;;;;;;3.80;1.63;;;;;;;;;;5020363;28;20071;-82
2021/05/30 05:20:48;;;;;;;3.20;1.70;;;;;;;;;;5033825;28;20108;-81
2021/05/30 05:23:15;;;;;;;2.78;1.60;;;;;;;;;;5027112;28;20053;-81
2021/05/30 05:25:41;;;;;;;2.72;1.70;;;;;;;;;;5023722;28;20030;-79
2021/05/30 05:28:08;;;;;;;3.40;1.80;;;;;;;;;;5029473;28;20048;-81
2021/05/30 05:30:34;;;;;;;2.20;1.48;;;;;;;;;;5022468;28;20025;-80
2021/05/30 05:33:00;;;;;;;3.95;2.30;;;;;;;;;;5029922;28;20079;-82
2021/05/30 05:35:27;;;;;;;4.50;1.92;;;;;;;;;;5034889;28;20025;-82
2021/05/30 05:37:54;;;;;;;3.33;1.80;;;;;;;;;;5034086;28;20029;-82
2021/05/30 05:40:20;;;;;;;3.33;1.85;;;;;;;;;;5022627;28;20034;-81
2021/05/30 05:42:46;;;;;;;3.55;1.70;;;;;;;;;;5022883;28;20124;-82
2021/05/30 05:45:12;;;;;;;3.50;1.60;;;;;;;;;;5022431;28;20079;-83
2021/05/30 05:47:42;;;;;;;2.53;1.40;;;;;;;;;;5018972;28;20029;-83
2021/05/30 05:50:08;;;;;;;2.28;1.45;;;;;;;;;;5032159;28;20021;-82
2021/05/30 05:52:34;;;;;;;2.03;1.33;;;;;;;;;;5029932;28;20396;-82
2021/05/30 05:55:00;;;;;;;2.05;1.50;;;;;;;;;;5028515;28;20026;-84
2021/05/30 05:57:26;;;;;;;3.63;1.60;;;;;;;;;;5031646;28;20067;-83
2021/05/30 05:59:52;;;;;;;2.83;1.58;;;;;;;;;;5026919;28;20018;-82
2021/05/30 06:02:19;;;;;;;1.83;1.48;;;;;;;;;;5029979;28;20498;-81
2021/05/30 06:04:45;;;;;;;3.22;1.52;;;;;;;;;;5033959;28;20035;-82
2021/05/30 06:07:11;;;;;;;2.63;1.55;;;;;;;;;;5028973;28;20123;-83
2021/05/30 06:09:37;;;;;;;3.05;1.50;;;;;;;;;;5031762;28;20112;-84
2021/05/30 06:12:03;;;;;;;3.55;1.67;;;;;;;;;;5039151;28;20052;-82
2021/05/30 06:14:29;;;;;;;2.50;1.30;;;;;;;;;;5028595;28;20386;-84
2021/05/30 06:16:55;;;;;;;2.13;1.38;;;;;;;;;;5035686;28;20026;-85
2021/05/30 06:19:21;;;;;;;2.83;1.55;;;;;;;;;;5037269;28;20083;-85
2021/05/30 06:21:47;;;;;;;3.65;1.30;;;;;;;;;;5033467;28;20072;-84
2021/05/30 06:24:13;;;;;;;1.83;1.27;;;;;;;;;;5023833;28;20113;-84
2021/05/30 06:26:39;;;;;;;3.40;1.40;;;;;;;;;;5029634;28;20052;-83
2021/05/30 06:29:05;;;;;;;2.45;1.30;;;;;;;;;;5031286;28;20209;-83
2021/05/30 06:31:31;;;;;;;3.47;1.52;;;;;;;;;;5038248;28;20085;-82
2021/05/30 06:33:58;;;;;;;3.25;1.52;;;;;;;;;;5031111;28;20048;-83
2021/05/30 06:36:24;;;;;;;2.63;1.50;;;;;;;;;;5032950;28;20022;-84
2021/05/30 06:38:50;;;;;;;2.22;1.30;;;;;;;;;;5030574;28;20022;-83
2021/05/30 06:41:17;;;;;;;3.28;1.50;;;;;;;;;;5031492;28;20029;-83
2021/05/30 06:43:43;;;;;;;2.28;1.65;;;;;;;;;;5039121;28;20026;-83
2021/05/30 06:46:09;;;;;;;2.92;1.38;;;;;;;;;;5037172;28;20033;-83
2021/05/30 06:48:35;;;;;;;2.58;1.30;;;;;;;;;;5043255;28;20081;-83
2021/05/30 06:51:16;;;;;;;3.10;1.38;;;;;;;;;;5033230;28;20031;-83
2021/05/30 06:53:45;;;;;;;2.85;1.38;;;;;;;;;;5033650;28;20017;-83
2021/05/30 06:56:11;;;;;;;4.07;1.50;;;;;;;;;;5033151;28;20100;-83
2021/05/30 06:58:37;;;;;;;1.60;1.30;;;;;;;;;;5028576;28;20104;-84
2021/05/30 07:01:03;;;;;;;3.75;1.38;;;;;;;;;;5031135;28;20104;-83
2021/05/30 07:03:29;;;;;;;1.70;1.50;;;;;;;;;;5031916;28;20079;-83
2021/05/30 07:05:55;;;;;;;2.22;1.30;;;;;;;;;;5031493;28;20030;-83
2021/05/30 07:08:21;;;;;;;2.10;1.30;;;;;;;;;;5032419;28;20112;-83
2021/05/30 07:10:47;;;;;;;2.58;1.30;;;;;;;;;;5036869;28;20444;-83
2021/05/30 07:13:13;;;;;;;2.15;1.30;;;;;;;;;;5038951;28;20079;-83
2021/05/30 07:15:40;;;;;;;1.48;1.13;;;;;;;;;;5039833;28;20482;-83
2021/05/30 07:18:06;;;;;;;2.28;1.20;;;;;;;;;;5032595;28;20025;-83
2021/05/30 07:20:32;;;;;;;2.22;1.10;;;;;;;;;;5038401;28;20040;-83
2021/05/30 07:22:58;;;;;;;1.58;1.13;;;;;;;;;;5034763;28;20399;-83
2021/05/30 07:25:24;;;;;;;2.58;1.20;;;;;;;;;;5028801;28;20028;-83
2021/05/30 07:27:51;;;;;;;3.00;1.25;;;;;;;;;;5023331;28;20433;-83
2021/05/30 07:30:17;;;;;;;2.67;1.30;;;;;;;;;;5034404;28;20026;-83
2021/05/30 07:32:43;;;;;;;2.47;1.40;;;;;;;;;;5030989;28;20018;-83
2021/05/30 07:35:10;;;;;;;3.17;1.40;;;;;;;;;;5039579;28;20437;-84
2021/05/30 07:37:36;;;;;;;2.03;1.30;;;;;;;;;;5031617;28;20022;-83
2021/05/30 07:40:02;;;;;;;2.20;1.30;;;;;;;;;;5032475;28;20082;-84
2021/05/30 07:42:28;;;;;;;2.28;1.20;;;;;;;;;;5031432;28;20059;-84
2021/05/30 07:44:54;;;;;;;1.80;1.38;;;;;;;;;;5030919;28;20389;-84
2021/05/30 07:47:21;;;;;;;3.30;1.30;;;;;;;;;;5030527;28;20213;-84
2021/05/30 07:49:47;;;;;;;2.80;1.23;;;;;;;;;;5037510;28;20029;-84
2021/05/30 07:52:13;;;;;;;2.15;1.38;;;;;;;;;;5033495;28;20033;-84
2021/05/30 07:54:39;;;;;;;1.73;1.38;;;;;;;;;;5031393;28;20106;-84
2021/05/30 07:57:05;;;;;;;2.95;1.30;;;;;;;;;;5033733;28;20032;-83
2021/05/30 07:59:31;;;;;;;2.45;1.30;;;;;;;;;;5031033;28;20080;-84
2021/05/30 08:01:59;;;;;;;2.42;1.65;;;;;;;;;;5034385;28;20037;-84
2021/05/30 08:04:25;;;;;;;3.17;1.55;;;;;;;;;;5035383;28;20028;-84
2021/05/30 08:06:51;;;;;;;4.72;1.60;;;;;;;;;;5032224;28;20367;-84
2021/05/30 08:09:17;;;;;;;2.03;1.30;;;;;;;;;;5028696;28;20049;-83
2021/05/30 08:11:43;;;;;;;3.35;1.80;;;;;;;;;;5030154;28;20033;-84
2021/05/30 08:14:09;;;;;;;2.67;1.60;;;;;;;;;;5031306;28;20030;-84
2021/05/30 08:16:36;;;;;;;4.28;1.60;;;;;;;;;;5034006;28;20397;-83
2021/05/30 08:19:02;;;;;;;4.22;1.80;;;;;;;;;;5035186;28;20094;-82
2021/05/30 08:21:28;;;;;;;3.83;1.92;;;;;;;;;;5032376;28;20056;-83
2021/05/30 08:23:54;;;;;;;2.75;1.80;;;;;;;;;;5029063;28;20459;-83
2021/05/30 08:26:20;;;;;;;4.53;1.77;;;;;;;;;;5030598;28;20025;-84
2021/05/30 08:28:46;;;;;;;5.13;1.70;;;;;;;;;;5033140;28;20304;-84
2021/05/30 08:31:12;;;;;;;2.08;1.73;;;;;;;;;;5029636;28;20387;-82
2021/05/30 08:33:38;;;;;;;5.18;1.80;;;;;;;;;;5034548;28;20038;-85
2021/05/30 08:36:04;;;;;;;2.60;1.90;;;;;;;;;;5029749;28;20021;-84
2021/05/30 08:38:31;;;;;;;2.55;1.67;;;;;;;;;;5030041;28;20041;-85
2021/05/30 08:40:58;;;;;;;3.15;1.67;;;;;;;;;;5032728;28;20383;-83
2021/05/30 08:43:24;;;;;;;1.90;1.40;;;;;;;;;;5032012;28;20060;-83
2021/05/30 08:45:50;;;;;;;2.25;1.52;;;;;;;;;;5029824;28;20029;-83
2021/05/30 08:48:16;;;;;;;2.38;1.58;;;;;;;;;;5031205;28;20120;-83
2021/05/30 08:50:42;;;;;;;2.03;1.60;;;;;;;;;;5026038;28;20100;-83
2021/05/30 08:53:09;;;;;;;2.97;1.67;;;;;;;;;;5027941;28;20463;-83
2021/05/30 08:55:37;;;;;;;3.00;1.60;;;;;;;;;;5033226;28;20360;-84
2021/05/30 08:58:03;;;;;;;2.40;1.75;;;;;;;;;;5029902;28;20052;-84
2021/05/30 09:00:32;;;;;;;4.35;1.90;;;;;;;;;;5028226;28;20421;-84
2021/05/30 09:03:14;;;;;;;3.63;1.90;;;;;;;;;;5028848;28;20116;-84
2021/05/30 09:05:40;;;;;;;4.32;1.92;;;;;;;;;;5033286;28;20509;-84
2021/05/30 09:08:07;;;;;;;3.45;1.60;;;;;;;;;;5031772;28;20029;-84
2021/05/30 09:10:33;;;;;;;2.28;1.63;;;;;;;;;;5032323;28;20103;-84
2021/05/30 09:13:05;;;;;;;2.40;1.70;;;;;;;;;;5035464;28;20386;-84
2021/05/30 09:15:54;;;;;;;3.42;1.85;;;;;;;;;;5029216;28;20474;-83
2021/05/30 09:18:24;;;;;;;3.33;1.70;;;;;;;;;;5029529;28;20029;-83
2021/05/30 09:20:54;;;;;;;3.33;1.70;;;;;;;;;;5035420;28;20018;-84
2021/05/30 09:23:33;;;;;;;2.78;1.60;;;;;;;;;;5029863;28;20072;-83
2021/05/30 09:26:19;;;;;;;3.13;1.58;;;;;;;;;;5025085;28;20430;-83
2021/05/30 09:29:03;;;;;;;4.72;1.65;;;;;;;;;;5035440;28;20489;-83
2021/05/30 09:31:29;;;;;;;3.45;1.83;;;;;;;;;;5030872;28;20037;-83
2021/05/30 09:33:55;;;;;;;5.47;1.73;;;;;;;;;;5041690;28;20025;-83
2021/05/30 09:36:22;;;;;;;2.97;1.73;;;;;;;;;;5029476;28;20552;-83
2021/05/30 09:38:48;;;;;;;2.47;1.65;;;;;;;;;;5032387;28;20060;-83
2021/05/30 09:41:18;;;;;;;2.38;1.70;;;;;;;;;;5030174;28;20038;-83
2021/05/30 09:43:51;;;;;;;3.47;1.77;;;;;;;;;;5032475;28;20029;-83
2021/05/30 09:46:18;;;;;;;2.92;1.63;;;;;;;;;;5028930;28;20032;-83
2021/05/30 09:48:44;;;;;;;4.30;1.60;;;;;;;;;;5027721;28;20029;-84
2021/05/30 09:51:28;;;;;;;2.55;1.60;;;;;;;;;;5030251;28;20021;-84
2021/05/30 09:53:56;;;;;;;2.50;1.55;;;;;;;;;;5031291;28;20382;-83
2021/05/30 09:56:22;;;;;;;;;;;;;;;;;;5019962;28;20021;-84
2021/05/30 09:58:52;;;;;;;3.70;1.60;;;;;;;;;;5032357;28;19916;-84
2021/05/30 10:01:18;;;;;;;3.33;1.50;;;;;;;;;;5029697;28;20147;-84
2021/05/30 10:03:44;;;;;;;1.85;1.33;;;;;;;;;;5033054;28;20091;-84
2021/05/30 10:06:10;;;;;;;3.17;1.77;;;;;;;;;;5034580;28;20034;-83
2021/05/30 10:08:36;;;;;;;2.00;1.50;;;;;;;;;;5035133;28;20023;-84
2021/05/30 10:11:02;;;;;;;3.50;1.48;;;;;;;;;;5035291;28;20029;-83
2021/05/30 10:13:29;;;;;;;2.28;1.58;;;;;;;;;;5028151;28;20037;-84
2021/05/30 10:15:55;;;;;;;3.22;1.80;;;;;;;;;;5038778;28;20048;-84
2021/05/30 10:18:27;;;;;;;8.75;1.80;;;;;;;;;;5037250;28;20502;-84
2021/05/30 10:20:54;;;;;;;3.15;1.50;;;;;;;;;;5033176;28;20037;-84
2021/05/30 10:23:22;;;;;;;3.03;1.60;;;;;;;;;;5038872;28;20037;-84
2021/05/30 10:25:48;;;;;;;2.78;1.60;;;;;;;;;;5039059;28;20022;-83
2021/05/30 10:28:18;;;;;;;2.20;1.52;;;;;;;;;;5034959;28;20509;-83
2021/05/30 10:30:46;;;;;;;3.40;1.70;;;;;;;;;;5031964;28;20387;-83
2021/05/30 10:33:17;;;;;;;2.92;1.55;;;;;;;;;;5032474;28;20691;-83
2021/05/30 10:35:44;;;;;;;2.58;1.58;;;;;;;;;;5031860;28;20022;-83
2021/05/30 10:38:11;;;;;;;3.22;1.70;;;;;;;;;;5038715;28;20538;-83
2021/05/30 10:40:41;;;;;;;2.87;1.80;;;;;;;;;;5029098;28;20025;-83
2021/05/30 10:43:11;;;;;;;2.00;1.63;;;;;;;;;;5030003;28;20049;-83
2021/05/30 10:45:37;;;;;;;2.90;1.60;;;;;;;;;;5027496;28;20025;-84
2021/05/30 10:48:03;;;;;;;3.78;1.63;;;;;;;;;;5036550;28;20022;-84
2021/05/30 10:50:36;;;;;;;2.80;1.38;;;;;;;;;;5031844;28;20482;-83
2021/05/30 10:53:03;;;;;;;2.38;1.65;;;;;;;;;;5040442;28;20013;-83
2021/05/30 10:55:30;;;;;;;2.55;1.50;;;;;;;;;;5034990;28;20025;-83
2021/05/30 10:57:56;;;;;;;2.85;1.40;;;;;;;;;;5031616;28;20429;-83
2021/05/30 11:00:22;;;;;;;2.67;1.58;;;;;;;;;;5038913;28;20034;-84
2021/05/30 11:03:05;;;;;;;2.13;1.52;;;;;;;;;;5031797;28;20037;-83
2021/05/30 11:05:47;;;;;;;2.97;1.50;;;;;;;;;;5019251;28;20021;-83
2021/05/30 11:08:34;;;;;;;3.08;1.80;;;;;;;;;;5033545;28;20045;-84
2021/05/30 11:11:16;;;;;;;1.50;1.30;;;;;;;;;;5031340;28;20091;-83
2021/05/30 11:13:49;;;;;;;4.30;1.60;;;;;;;;;;5034061;28;20022;-83
2021/05/30 11:16:14;;;;;;;2.78;1.50;;;;;;;;;;5034713;28;20018;-83
2021/05/30 11:18:41;;;;;;;2.15;1.48;;;;;;;;;;5031572;28;20029;-83
2021/05/30 11:21:07;;;;;;;1.88;1.50;;;;;;;;;;5032251;28;20433;-83
2021/05/30 11:23:33;;;;;;;4.00;1.50;;;;;;;;;;5031193;28;20397;-83
2021/05/30 11:25:59;;;;;;;2.40;1.52;;;;;;;;;;5039064;28;20048;-83
2021/05/30 11:28:26;;;;;;;6.18;1.73;;;;;;;;;;5030433;28;20037;-83
2021/05/30 11:31:00;;;;;;;2.58;1.58;;;;;;;;;;5030164;28;20029;-83
2021/05/30 11:33:27;;;;;;;2.22;1.40;;;;;;;;;;5031400;28;20057;-83
2021/05/30 11:35:57;;;;;;;3.22;1.40;;;;;;;;;;5031381;28;20025;-83
2021/05/30 11:38:41;;;;;;;4.85;1.80;;;;;;;;;;5016672;28;20051;-83
2021/05/30 11:41:19;;;;;;;2.47;1.60;;;;;;;;;;5037697;28;20033;-84
2021/05/30 11:44:01;;;;;;;3.28;1.50;;;;;;;;;;5037116;28;20026;-84
2021/05/30 11:46:28;;;;;;;2.90;1.65;;;;;;;;;;5030850;28;20026;-84
2021/05/30 11:49:13;;;;;;;2.38;1.42;;;;;;;;;;5033895;28;20029;-84
2021/05/30 11:51:46;;;;;;;2.80;1.35;;;;;;;;;;5031022;28;20018;-84
2021/05/30 11:54:12;;;;;;;2.25;1.48;;;;;;;;;;5035122;28;20175;-84
2021/05/30 11:56:42;;;;;;;3.05;1.52;;;;;;;;;;5032924;28;20026;-83
2021/05/30 11:59:08;;;;;;;2.33;1.50;;;;;;;;;;5032144;28;20452;-84
2021/05/30 12:01:47;;;;;;;2.40;1.35;;;;;;;;;;5032945;28;20061;-84
2021/05/30 12:04:22;;;;;;;3.47;1.58;;;;;;;;;;5039732;28;20041;-84
2021/05/30 12:06:49;;;;;;;2.88;1.50;;;;;;;;;;5035926;28;20500;-83
2021/05/30 12:09:15;;;;;;;2.97;1.70;;;;;;;;;;5034834;28;20049;-84
2021/05/30 12:11:41;;;;;;;1.80;1.50;;;;;;;;;;5030873;28;20029;-83
2021/05/30 12:14:07;;;;;;;3.08;1.50;;;;;;;;;;5036249;28;20037;-83
2021/05/30 12:16:33;;;;;;;2.97;1.80;;;;;;;;;;5035287;28;20030;-83
2021/05/30 12:19:00;;;;;;;2.50;1.30;;;;;;;;;;5039988;28;20022;-83
2021/05/30 12:21:27;;;;;;;3.93;1.50;;;;;;;;;;5030179;28;20040;-83
2021/05/30 12:23:53;;;;;;;2.03;1.75;;;;;;;;;;5036413;28;20033;-84
2021/05/30 12:26:20;;;;;;;2.75;1.50;;;;;;;;;;5031114;28;20033;-83
2021/05/30 12:28:46;;;;;;;2.00;1.40;;;;;;;;;;5038218;28;20052;-83
2021/05/30 12:31:15;;;;;;;3.10;1.67;;;;;;;;;;5030291;28;20032;-83
2021/05/30 12:33:50;;;;;;;2.63;1.50;;;;;;;;;;5028586;28;20103;-83
2021/05/30 12:36:29;;;;;;;2.70;1.60;;;;;;;;;;5033502;28;20032;-83
2021/05/30 12:39:01;;;;;;;2.03;1.23;;;;;;;;;;5030862;28;20053;-84
2021/05/30 12:41:31;;;;;;;3.33;1.42;;;;;;;;;;5014340;28;20029;-83
2021/05/30 12:44:08;;;;;;;2.35;1.52;;;;;;;;;;5033479;28;20033;-83
2021/05/30 12:46:35;;;;;;;1.85;1.50;;;;;;;;;;5033192;28;20112;-83
2021/05/30 12:49:11;;;;;;;3.35;1.70;;;;;;;;;;5035303;28;20029;-83
2021/05/30 12:51:37;;;;;;;2.88;1.48;;;;;;;;;;5029830;28;20092;-84
2021/05/30 12:54:16;;;;;;;2.83;1.50;;;;;;;;;;5036449;28;20033;-83
2021/05/30 12:56:50;;;;;;;1.73;1.40;;;;;;;;;;5030483;28;20375;-83
2021/05/30 12:59:17;;;;;;;3.42;1.50;;;;;;;;;;5030403;28;20040;-84
2021/05/30 13:01:46;;;;;;;4.80;2.13;;;;;;;;;;5032134;28;20445;-83
2021/05/30 13:04:24;;;;;;;2.17;1.55;;;;;;;;;;5029954;28;20384;-83
2021/05/30 13:07:02;;;;;;;2.05;1.70;;;;;;;;;;5033285;28;20029;-84
2021/05/30 13:09:41;;;;;;;2.55;1.70;;;;;;;;;;5034062;28;20072;-83
2021/05/30 13:12:23;;;;;;;3.53;1.50;;;;;;;;;;5033913;28;20021;-83
2021/05/30 13:14:49;;;;;;;2.38;1.67;;;;;;;;;;5034087;28;20033;-83
2021/05/30 13:17:18;;;;;;;3.67;1.52;;;;;;;;;;5031042;28;20052;-83
2021/05/30 13:20:02;;;;;;;4.43;1.67;;;;;;;;;;5026322;28;20021;-84
2021/05/30 13:22:28;;;;;;;2.88;1.75;;;;;;;;;;5027546;28;20045;-83
2021/05/30 13:24:55;;;;;;;2.97;1.40;;;;;;;;;;5029146;28;20466;-83
2021/05/30 13:27:29;;;;;;;2.38;1.70;;;;;;;;;;5027950;28;20028;-83
2021/05/30 13:30:08;;;;;;;3.78;1.70;;;;;;;;;;5031410;28;20393;-83
2021/05/30 13:32:35;;;;;;;2.50;1.63;;;;;;;;;;5017295;28;20108;-84
2021/05/30 13:35:01;;;;;;;3.20;1.80;;;;;;;;;;5037969;28;20026;-83
2021/05/30 13:37:27;;;;;;;2.97;1.60;;;;;;;;;;5033119;28;20025;-83
2021/05/30 13:39:57;;;;;;;2.03;1.67;;;;;;;;;;5033734;28;20350;-83
2021/05/30 13:42:23;;;;;;;3.00;1.60;;;;;;;;;;5033421;28;20095;-83
2021/05/30 13:44:49;;;;;;;3.47;1.60;;;;;;;;;;5037441;28;20101;-83
2021/05/30 13:47:15;;;;;;;4.13;1.75;;;;;;;;;;5033736;28;20025;-83
2021/05/30 13:49:42;;;;;;;2.53;1.80;;;;;;;;;;5036877;28;20025;-83
2021/05/30 13:52:08;;;;;;;1.77;1.52;;;;;;;;;;5032825;28;20075;-83
2021/05/30 13:54:34;;;;;;;1.75;1.50;;;;;;;;;;5034407;28;20459;-83
2021/05/30 13:57:00;;;;;;;1.92;1.45;;;;;;;;;;5035040;28;20025;-83
2021/05/30 13:59:27;;;;;;;2.17;1.50;;;;;;;;;;5034041;28;20022;-83
2021/05/30 14:01:53;;;;;;;2.40;1.70;;;;;;;;;;5038909;28;20072;-83
2021/05/30 14:04:19;;;;;;;2.55;1.75;;;;;;;;;;5035327;28;20034;-83
2021/05/30 14:06:45;;;;;;;2.47;1.50;;;;;;;;;;5036594;28;20386;-83
2021/05/30 14:09:12;;;;;;;3.38;1.52;;;;;;;;;;5028461;28;20115;-83
2021/05/30 14:11:38;;;;;;;1.85;1.30;;;;;;;;;;5032445;28;20097;-83
2021/05/30 14:14:04;;;;;;;3.95;1.40;;;;;;;;;;5033653;28;20057;-83
2021/05/30 14:16:30;;;;;;;1.98;1.45;;;;;;;;;;5035884;28;20052;-82
2021/05/30 14:18:57;;;;;;;5.00;2.33;;;;;;;;;;5036192;28;20025;-83
2021/05/30 14:21:23;;;;;;;1.85;1.60;;;;;;;;;;5030702;28;20025;-83
2021/05/30 14:23:49;;;;;;;5.55;1.58;;;;;;;;;;5032775;28;20053;-83
2021/05/30 14:26:15;;;;;;;2.55;1.70;;;;;;;;;;5034215;28;20099;-84
2021/05/30 14:28:41;;;;;;;2.35;1.60;;;;;;;;;;5034701;28;20026;-83
2021/05/30 14:31:07;;;;;;;2.30;1.40;;;;;;;;;;5032389;28;20021;-83
2021/05/30 14:33:33;;;;;;;4.22;1.67;;;;;;;;;;5033289;28;20030;-83
2021/05/30 14:35:59;;;;;;;4.13;1.70;;;;;;;;;;5033258;28;20038;-83
2021/05/30 14:38:25;;;;;;;4.53;2.00;;;;;;;;;;5031617;28;20482;-83
2021/05/30 14:40:51;;;;;;;1.95;1.60;;;;;;;;;;5034269;28;20108;-83
2021/05/30 14:43:18;;;;;;;2.45;1.80;;;;;;;;;;5031933;28;20474;-83
2021/05/30 14:45:44;;;;;;;3.65;1.70;;;;;;;;;;5032086;28;20016;-83